sensor_id;sensor_type;location;lat;lon;timestamp;P1;durP1;ratioP1;P2;durP2;ratioP2
76765;SDS011;65707;52.362;6.588;2022-12-18T00:00:07;96.65;;;21.60;;
76765;SDS011;65707;52.362;6.588;2022-12-18T00:02:36;71.60;;;18.08;;
76765;SDS011;65707;52.362;6.588;2022-12-18T00:05:03;62.95;;;16.15;;
76765;SDS011;65707;52.362;6.588;2022-12-18T00:07:30;72.72;;;19.25;;
76765;SDS011;65707;52.362;6.588;2022-12-18T00:09:57;88.53;;;19.63;;
76765;SDS011;65707;52.362;6.588;2022-12-18T00:12:24;79.63;;;19.10;;
76765;SDS011;65707;52.362;6.588;2022-12-18T00:14:54;84.88;;;20.90;;
76765;SDS011;65707;52.362;6.588;2022-12-18T00:17:22;80.55;;;19.73;;
76765;SDS011;65707;52.362;6.588;2022-12-18T00:19:48;93.35;;;21.08;;
76765;SDS011;65707;52.362;6.588;2022-12-18T00:22:18;92.88;;;21.65;;
76765;SDS011;65707;52.362;6.588;2022-12-18T00:24:45;113.55;;;21.20;;
76765;SDS011;65707;52.362;6.588;2022-12-18T00:27:12;103.25;;;21.23;;
76765;SDS011;65707;52.362;6.588;2022-12-18T00:29:41;78.75;;;17.77;;
76765;SDS011;65707;52.362;6.588;2022-12-18T00:32:11;91.28;;;18.90;;
76765;SDS011;65707;52.362;6.588;2022-12-18T00:34:39;87.95;;;19.73;;
76765;SDS011;65707;52.362;6.588;2022-12-18T00:37:06;86.88;;;20.33;;
76765;SDS011;65707;52.362;6.588;2022-12-18T00:39:33;83.75;;;19.65;;
76765;SDS011;65707;52.362;6.588;2022-12-18T00:42:00;87.95;;;18.75;;
76765;SDS011;65707;52.362;6.588;2022-12-18T00:44:44;90.65;;;20.65;;
76765;SDS011;65707;52.362;6.588;2022-12-18T00:47:11;100.68;;;21.02;;
76765;SDS011;65707;52.362;6.588;2022-12-18T00:49:39;94.18;;;20.15;;
76765;SDS011;65707;52.362;6.588;2022-12-18T00:52:06;87.78;;;19.70;;
76765;SDS011;65707;52.362;6.588;2022-12-18T00:54:33;106.93;;;19.63;;
76765;SDS011;65707;52.362;6.588;2022-12-18T00:57:00;111.55;;;22.92;;
76765;SDS011;65707;52.362;6.588;2022-12-18T00:59:27;99.28;;;20.33;;
76765;SDS011;65707;52.362;6.588;2022-12-18T01:01:55;106.85;;;23.73;;
76765;SDS011;65707;52.362;6.588;2022-12-18T01:04:21;110.70;;;23.27;;
76765;SDS011;65707;52.362;6.588;2022-12-18T01:06:50;98.38;;;22.13;;
76765;SDS011;65707;52.362;6.588;2022-12-18T01:09:16;88.53;;;20.92;;
76765;SDS011;65707;52.362;6.588;2022-12-18T01:11:43;102.75;;;23.15;;
76765;SDS011;65707;52.362;6.588;2022-12-18T01:14:10;107.38;;;24.83;;
76765;SDS011;65707;52.362;6.588;2022-12-18T01:16:37;62.78;;;18.10;;
76765;SDS011;65707;52.362;6.588;2022-12-18T01:19:04;89.53;;;20.75;;
76765;SDS011;65707;52.362;6.588;2022-12-18T01:21:30;81.90;;;19.25;;
76765;SDS011;65707;52.362;6.588;2022-12-18T01:23:59;77.80;;;21.88;;
76765;SDS011;65707;52.362;6.588;2022-12-18T01:26:26;86.43;;;21.75;;
76765;SDS011;65707;52.362;6.588;2022-12-18T01:28:54;80.65;;;19.52;;
76765;SDS011;65707;52.362;6.588;2022-12-18T01:31:23;74.43;;;18.65;;
76765;SDS011;65707;52.362;6.588;2022-12-18T01:33:52;85.85;;;20.45;;
76765;SDS011;65707;52.362;6.588;2022-12-18T01:36:21;74.28;;;20.20;;
76765;SDS011;65707;52.362;6.588;2022-12-18T01:38:50;65.40;;;19.17;;
76765;SDS011;65707;52.362;6.588;2022-12-18T01:41:21;67.63;;;18.42;;
76765;SDS011;65707;52.362;6.588;2022-12-18T01:43:50;69.43;;;20.55;;
76765;SDS011;65707;52.362;6.588;2022-12-18T01:46:26;67.20;;;18.17;;
76765;SDS011;65707;52.362;6.588;2022-12-18T01:48:53;65.32;;;17.80;;
76765;SDS011;65707;52.362;6.588;2022-12-18T01:51:26;69.88;;;17.67;;
76765;SDS011;65707;52.362;6.588;2022-12-18T01:53:54;63.88;;;18.20;;
76765;SDS011;65707;52.362;6.588;2022-12-18T01:56:25;59.13;;;16.80;;
76765;SDS011;65707;52.362;6.588;2022-12-18T01:58:53;56.38;;;16.70;;
76765;SDS011;65707;52.362;6.588;2022-12-18T02:01:25;62.28;;;15.70;;
76765;SDS011;65707;52.362;6.588;2022-12-18T02:03:55;54.55;;;16.02;;
76765;SDS011;65707;52.362;6.588;2022-12-18T02:06:23;56.20;;;16.85;;
76765;SDS011;65707;52.362;6.588;2022-12-18T02:09:02;50.85;;;15.98;;
76765;SDS011;65707;52.362;6.588;2022-12-18T02:11:42;57.78;;;16.27;;
76765;SDS011;65707;52.362;6.588;2022-12-18T02:14:21;54.85;;;16.17;;
76765;SDS011;65707;52.362;6.588;2022-12-18T02:17:01;56.15;;;16.50;;
76765;SDS011;65707;52.362;6.588;2022-12-18T02:19:39;50.78;;;15.82;;
76765;SDS011;65707;52.362;6.588;2022-12-18T02:22:25;49.38;;;14.95;;
76765;SDS011;65707;52.362;6.588;2022-12-18T02:25:10;48.55;;;14.05;;
76765;SDS011;65707;52.362;6.588;2022-12-18T02:27:51;53.13;;;16.98;;
76765;SDS011;65707;52.362;6.588;2022-12-18T02:30:20;54.50;;;15.20;;
76765;SDS011;65707;52.362;6.588;2022-12-18T02:32:49;48.85;;;15.18;;
76765;SDS011;65707;52.362;6.588;2022-12-18T02:35:20;48.58;;;14.38;;
76765;SDS011;65707;52.362;6.588;2022-12-18T02:37:52;42.70;;;14.15;;
76765;SDS011;65707;52.362;6.588;2022-12-18T02:40:21;52.60;;;13.95;;
76765;SDS011;65707;52.362;6.588;2022-12-18T02:42:53;46.55;;;14.20;;
76765;SDS011;65707;52.362;6.588;2022-12-18T02:45:20;49.58;;;16.05;;
76765;SDS011;65707;52.362;6.588;2022-12-18T02:47:48;49.40;;;14.00;;
76765;SDS011;65707;52.362;6.588;2022-12-18T02:50:17;46.38;;;15.02;;
76765;SDS011;65707;52.362;6.588;2022-12-18T02:52:55;46.40;;;14.80;;
76765;SDS011;65707;52.362;6.588;2022-12-18T02:55:39;40.92;;;13.45;;
76765;SDS011;65707;52.362;6.588;2022-12-18T02:58:25;46.58;;;13.68;;
76765;SDS011;65707;52.362;6.588;2022-12-18T03:00:59;42.80;;;13.93;;
76765;SDS011;65707;52.362;6.588;2022-12-18T03:03:36;48.83;;;14.02;;
76765;SDS011;65707;52.362;6.588;2022-12-18T03:06:12;42.92;;;13.93;;
76765;SDS011;65707;52.362;6.588;2022-12-18T03:08:49;44.78;;;13.52;;
76765;SDS011;65707;52.362;6.588;2022-12-18T03:11:24;44.05;;;13.48;;
76765;SDS011;65707;52.362;6.588;2022-12-18T03:14:14;39.03;;;13.40;;
76765;SDS011;65707;52.362;6.588;2022-12-18T03:16:46;42.72;;;12.93;;
76765;SDS011;65707;52.362;6.588;2022-12-18T03:19:19;46.38;;;13.45;;
76765;SDS011;65707;52.362;6.588;2022-12-18T03:21:56;49.47;;;13.23;;
76765;SDS011;65707;52.362;6.588;2022-12-18T03:24:28;38.72;;;12.57;;
76765;SDS011;65707;52.362;6.588;2022-12-18T03:26:58;46.35;;;12.98;;
76765;SDS011;65707;52.362;6.588;2022-12-18T03:29:33;39.72;;;12.13;;
76765;SDS011;65707;52.362;6.588;2022-12-18T03:32:05;40.80;;;11.80;;
76765;SDS011;65707;52.362;6.588;2022-12-18T03:34:38;34.10;;;11.02;;
76765;SDS011;65707;52.362;6.588;2022-12-18T03:37:08;35.10;;;11.73;;
76765;SDS011;65707;52.362;6.588;2022-12-18T03:39:36;40.10;;;12.02;;
76765;SDS011;65707;52.362;6.588;2022-12-18T03:42:04;38.80;;;12.15;;
76765;SDS011;65707;52.362;6.588;2022-12-18T03:47:16;36.97;;;11.15;;
76765;SDS011;65707;52.362;6.588;2022-12-18T03:49:54;36.22;;;11.38;;
76765;SDS011;65707;52.362;6.588;2022-12-18T03:52:35;33.85;;;11.50;;
76765;SDS011;65707;52.362;6.588;2022-12-18T03:55:09;33.30;;;11.68;;
76765;SDS011;65707;52.362;6.588;2022-12-18T03:57:38;40.55;;;12.15;;
76765;SDS011;65707;52.362;6.588;2022-12-18T04:00:10;38.40;;;11.57;;
76765;SDS011;65707;52.362;6.588;2022-12-18T04:02:43;36.13;;;12.23;;
76765;SDS011;65707;52.362;6.588;2022-12-18T04:05:15;36.00;;;12.02;;
76765;SDS011;65707;52.362;6.588;2022-12-18T04:07:44;36.58;;;11.02;;
76765;SDS011;65707;52.362;6.588;2022-12-18T04:10:13;42.88;;;14.20;;
76765;SDS011;65707;52.362;6.588;2022-12-18T04:12:42;38.05;;;11.15;;
76765;SDS011;65707;52.362;6.588;2022-12-18T04:15:11;35.08;;;10.82;;
76765;SDS011;65707;52.362;6.588;2022-12-18T04:17:39;32.08;;;11.60;;
76765;SDS011;65707;52.362;6.588;2022-12-18T04:20:13;35.08;;;10.98;;
76765;SDS011;65707;52.362;6.588;2022-12-18T04:22:40;36.30;;;11.60;;
76765;SDS011;65707;52.362;6.588;2022-12-18T04:25:08;31.55;;;12.50;;
76765;SDS011;65707;52.362;6.588;2022-12-18T04:27:38;31.20;;;10.27;;
76765;SDS011;65707;52.362;6.588;2022-12-18T04:30:06;28.75;;;11.73;;
76765;SDS011;65707;52.362;6.588;2022-12-18T04:32:35;33.78;;;11.18;;
76765;SDS011;65707;52.362;6.588;2022-12-18T04:35:02;33.13;;;11.15;;
76765;SDS011;65707;52.362;6.588;2022-12-18T04:37:33;29.85;;;10.20;;
76765;SDS011;65707;52.362;6.588;2022-12-18T04:40:00;30.63;;;10.05;;
76765;SDS011;65707;52.362;6.588;2022-12-18T04:42:26;32.78;;;10.73;;
76765;SDS011;65707;52.362;6.588;2022-12-18T04:44:53;32.97;;;10.63;;
76765;SDS011;65707;52.362;6.588;2022-12-18T04:47:20;35.83;;;11.07;;
76765;SDS011;65707;52.362;6.588;2022-12-18T04:49:48;27.80;;;9.95;;
76765;SDS011;65707;52.362;6.588;2022-12-18T04:52:15;27.80;;;10.88;;
76765;SDS011;65707;52.362;6.588;2022-12-18T04:54:42;31.73;;;9.90;;
76765;SDS011;65707;52.362;6.588;2022-12-18T04:57:09;37.53;;;11.25;;
76765;SDS011;65707;52.362;6.588;2022-12-18T04:59:36;33.17;;;9.82;;
76765;SDS011;65707;52.362;6.588;2022-12-18T05:02:03;28.58;;;9.75;;
76765;SDS011;65707;52.362;6.588;2022-12-18T05:04:30;34.78;;;9.65;;
76765;SDS011;65707;52.362;6.588;2022-12-18T05:06:58;32.42;;;10.45;;
76765;SDS011;65707;52.362;6.588;2022-12-18T05:09:25;32.03;;;10.98;;
76765;SDS011;65707;52.362;6.588;2022-12-18T05:11:52;32.38;;;9.63;;
76765;SDS011;65707;52.362;6.588;2022-12-18T05:14:19;31.42;;;11.85;;
76765;SDS011;65707;52.362;6.588;2022-12-18T05:16:46;31.83;;;9.70;;
76765;SDS011;65707;52.362;6.588;2022-12-18T05:19:13;31.40;;;10.60;;
76765;SDS011;65707;52.362;6.588;2022-12-18T05:21:40;28.33;;;10.38;;
76765;SDS011;65707;52.362;6.588;2022-12-18T05:24:08;29.98;;;10.98;;
76765;SDS011;65707;52.362;6.588;2022-12-18T05:26:35;29.70;;;9.80;;
76765;SDS011;65707;52.362;6.588;2022-12-18T05:29:02;31.08;;;9.35;;
76765;SDS011;65707;52.362;6.588;2022-12-18T05:31:28;29.42;;;9.82;;
76765;SDS011;65707;52.362;6.588;2022-12-18T05:33:55;29.80;;;9.80;;
76765;SDS011;65707;52.362;6.588;2022-12-18T05:36:22;32.10;;;9.95;;
76765;SDS011;65707;52.362;6.588;2022-12-18T05:38:49;26.63;;;9.23;;
76765;SDS011;65707;52.362;6.588;2022-12-18T05:41:17;32.47;;;10.63;;
76765;SDS011;65707;52.362;6.588;2022-12-18T05:43:44;28.38;;;9.43;;
76765;SDS011;65707;52.362;6.588;2022-12-18T05:46:11;29.25;;;9.77;;
76765;SDS011;65707;52.362;6.588;2022-12-18T05:48:40;31.10;;;9.60;;
76765;SDS011;65707;52.362;6.588;2022-12-18T05:51:09;25.63;;;8.95;;
76765;SDS011;65707;52.362;6.588;2022-12-18T05:53:38;30.38;;;9.23;;
76765;SDS011;65707;52.362;6.588;2022-12-18T05:56:05;31.05;;;10.15;;
76765;SDS011;65707;52.362;6.588;2022-12-18T05:58:38;26.42;;;8.73;;
76765;SDS011;65707;52.362;6.588;2022-12-18T06:01:06;26.73;;;10.05;;
76765;SDS011;65707;52.362;6.588;2022-12-18T06:03:35;23.95;;;9.07;;
76765;SDS011;65707;52.362;6.588;2022-12-18T06:06:02;29.05;;;8.70;;
76765;SDS011;65707;52.362;6.588;2022-12-18T06:08:30;29.10;;;9.35;;
76765;SDS011;65707;52.362;6.588;2022-12-18T06:10:57;30.17;;;10.05;;
76765;SDS011;65707;52.362;6.588;2022-12-18T06:13:24;26.05;;;9.00;;
76765;SDS011;65707;52.362;6.588;2022-12-18T06:15:52;27.38;;;8.80;;
76765;SDS011;65707;52.362;6.588;2022-12-18T06:18:18;26.67;;;9.82;;
76765;SDS011;65707;52.362;6.588;2022-12-18T06:20:51;26.10;;;10.02;;
76765;SDS011;65707;52.362;6.588;2022-12-18T06:23:21;27.17;;;9.95;;
76765;SDS011;65707;52.362;6.588;2022-12-18T06:25:48;26.60;;;9.00;;
76765;SDS011;65707;52.362;6.588;2022-12-18T06:28:15;24.63;;;9.90;;
76765;SDS011;65707;52.362;6.588;2022-12-18T06:30:43;27.65;;;9.05;;
76765;SDS011;65707;52.362;6.588;2022-12-18T06:33:11;26.88;;;9.13;;
76765;SDS011;65707;52.362;6.588;2022-12-18T06:35:38;25.75;;;8.65;;
76765;SDS011;65707;52.362;6.588;2022-12-18T06:38:05;23.13;;;8.38;;
76765;SDS011;65707;52.362;6.588;2022-12-18T06:40:32;26.17;;;9.07;;
76765;SDS011;65707;52.362;6.588;2022-12-18T06:42:59;26.67;;;9.73;;
76765;SDS011;65707;52.362;6.588;2022-12-18T06:45:26;27.38;;;9.18;;
76765;SDS011;65707;52.362;6.588;2022-12-18T06:47:53;23.60;;;8.35;;
76765;SDS011;65707;52.362;6.588;2022-12-18T06:50:21;28.33;;;8.45;;
76765;SDS011;65707;52.362;6.588;2022-12-18T06:52:48;27.45;;;9.13;;
76765;SDS011;65707;52.362;6.588;2022-12-18T06:55:14;26.73;;;10.07;;
76765;SDS011;65707;52.362;6.588;2022-12-18T06:57:41;23.77;;;8.40;;
76765;SDS011;65707;52.362;6.588;2022-12-18T07:00:09;22.75;;;8.10;;
76765;SDS011;65707;52.362;6.588;2022-12-18T07:02:37;25.27;;;8.90;;
76765;SDS011;65707;52.362;6.588;2022-12-18T07:05:04;23.98;;;8.73;;
76765;SDS011;65707;52.362;6.588;2022-12-18T07:07:34;23.77;;;8.43;;
76765;SDS011;65707;52.362;6.588;2022-12-18T07:10:02;22.67;;;7.63;;
76765;SDS011;65707;52.362;6.588;2022-12-18T07:12:29;23.85;;;8.00;;
76765;SDS011;65707;52.362;6.588;2022-12-18T07:14:56;23.30;;;8.20;;
76765;SDS011;65707;52.362;6.588;2022-12-18T07:17:23;19.88;;;8.93;;
76765;SDS011;65707;52.362;6.588;2022-12-18T07:19:50;23.98;;;8.52;;
76765;SDS011;65707;52.362;6.588;2022-12-18T07:22:17;24.65;;;9.60;;
76765;SDS011;65707;52.362;6.588;2022-12-18T07:24:45;19.95;;;7.85;;
76765;SDS011;65707;52.362;6.588;2022-12-18T07:27:12;25.77;;;10.45;;
76765;SDS011;65707;52.362;6.588;2022-12-18T07:29:39;22.95;;;8.15;;
76765;SDS011;65707;52.362;6.588;2022-12-18T07:32:06;24.73;;;9.35;;
76765;SDS011;65707;52.362;6.588;2022-12-18T07:34:33;31.80;;;13.00;;
76765;SDS011;65707;52.362;6.588;2022-12-18T07:37:00;21.50;;;8.48;;
76765;SDS011;65707;52.362;6.588;2022-12-18T07:39:27;21.40;;;8.32;;
76765;SDS011;65707;52.362;6.588;2022-12-18T07:41:55;17.20;;;7.85;;
76765;SDS011;65707;52.362;6.588;2022-12-18T07:44:40;24.33;;;9.02;;
76765;SDS011;65707;52.362;6.588;2022-12-18T07:47:07;20.90;;;7.63;;
76765;SDS011;65707;52.362;6.588;2022-12-18T07:49:33;20.10;;;8.20;;
76765;SDS011;65707;52.362;6.588;2022-12-18T07:52:00;21.85;;;8.50;;
76765;SDS011;65707;52.362;6.588;2022-12-18T07:54:27;22.13;;;8.75;;
76765;SDS011;65707;52.362;6.588;2022-12-18T07:56:55;20.05;;;7.57;;
76765;SDS011;65707;52.362;6.588;2022-12-18T07:59:22;22.77;;;7.85;;
76765;SDS011;65707;52.362;6.588;2022-12-18T08:01:49;19.67;;;7.38;;
76765;SDS011;65707;52.362;6.588;2022-12-18T08:04:16;24.13;;;8.73;;
76765;SDS011;65707;52.362;6.588;2022-12-18T08:06:43;19.75;;;9.27;;
76765;SDS011;65707;52.362;6.588;2022-12-18T08:09:10;19.20;;;7.20;;
76765;SDS011;65707;52.362;6.588;2022-12-18T08:11:37;24.80;;;7.82;;
76765;SDS011;65707;52.362;6.588;2022-12-18T08:14:05;19.92;;;7.82;;
76765;SDS011;65707;52.362;6.588;2022-12-18T08:16:32;20.98;;;7.53;;
76765;SDS011;65707;52.362;6.588;2022-12-18T08:19:00;21.60;;;7.70;;
76765;SDS011;65707;52.362;6.588;2022-12-18T08:21:28;20.80;;;7.55;;
76765;SDS011;65707;52.362;6.588;2022-12-18T08:23:56;21.42;;;8.65;;
76765;SDS011;65707;52.362;6.588;2022-12-18T08:26:26;20.92;;;8.27;;
76765;SDS011;65707;52.362;6.588;2022-12-18T08:28:56;20.73;;;9.93;;
76765;SDS011;65707;52.362;6.588;2022-12-18T08:31:26;18.00;;;6.95;;
76765;SDS011;65707;52.362;6.588;2022-12-18T08:33:56;18.20;;;6.90;;
76765;SDS011;65707;52.362;6.588;2022-12-18T08:36:23;17.48;;;6.93;;
76765;SDS011;65707;52.362;6.588;2022-12-18T08:38:51;20.52;;;7.13;;
76765;SDS011;65707;52.362;6.588;2022-12-18T08:41:19;22.98;;;7.80;;
76765;SDS011;65707;52.362;6.588;2022-12-18T08:43:46;20.52;;;7.25;;
76765;SDS011;65707;52.362;6.588;2022-12-18T08:46:35;21.20;;;8.27;;
76765;SDS011;65707;52.362;6.588;2022-12-18T08:49:05;21.30;;;9.45;;
76765;SDS011;65707;52.362;6.588;2022-12-18T08:51:34;22.60;;;8.30;;
76765;SDS011;65707;52.362;6.588;2022-12-18T08:54:02;20.58;;;7.88;;
76765;SDS011;65707;52.362;6.588;2022-12-18T08:56:30;14.48;;;6.10;;
76765;SDS011;65707;52.362;6.588;2022-12-18T08:58:57;19.90;;;7.60;;
76765;SDS011;65707;52.362;6.588;2022-12-18T09:01:27;16.23;;;6.68;;
76765;SDS011;65707;52.362;6.588;2022-12-18T09:03:55;20.17;;;6.82;;
76765;SDS011;65707;52.362;6.588;2022-12-18T09:06:22;16.75;;;6.18;;
76765;SDS011;65707;52.362;6.588;2022-12-18T09:08:51;16.60;;;6.32;;
76765;SDS011;65707;52.362;6.588;2022-12-18T09:11:19;16.23;;;6.93;;
76765;SDS011;65707;52.362;6.588;2022-12-18T09:13:48;17.20;;;6.40;;
76765;SDS011;65707;52.362;6.588;2022-12-18T09:16:16;14.07;;;6.22;;
76765;SDS011;65707;52.362;6.588;2022-12-18T09:18:43;18.10;;;6.78;;
76765;SDS011;65707;52.362;6.588;2022-12-18T09:21:12;18.33;;;7.30;;
76765;SDS011;65707;52.362;6.588;2022-12-18T09:23:41;17.75;;;7.40;;
76765;SDS011;65707;52.362;6.588;2022-12-18T09:26:09;16.25;;;6.50;;
76765;SDS011;65707;52.362;6.588;2022-12-18T09:28:36;13.73;;;6.32;;
76765;SDS011;65707;52.362;6.588;2022-12-18T09:31:04;15.90;;;6.32;;
76765;SDS011;65707;52.362;6.588;2022-12-18T09:33:33;12.15;;;5.03;;
76765;SDS011;65707;52.362;6.588;2022-12-18T09:36:02;13.07;;;6.07;;
76765;SDS011;65707;52.362;6.588;2022-12-18T09:38:34;14.38;;;5.60;;
76765;SDS011;65707;52.362;6.588;2022-12-18T09:41:03;13.68;;;6.18;;
76765;SDS011;65707;52.362;6.588;2022-12-18T09:43:45;18.38;;;7.22;;
76765;SDS011;65707;52.362;6.588;2022-12-18T09:46:20;13.80;;;5.55;;
76765;SDS011;65707;52.362;6.588;2022-12-18T09:48:54;14.85;;;5.65;;
76765;SDS011;65707;52.362;6.588;2022-12-18T09:51:26;13.43;;;5.47;;
76765;SDS011;65707;52.362;6.588;2022-12-18T09:54:00;13.93;;;5.65;;
76765;SDS011;65707;52.362;6.588;2022-12-18T09:56:34;11.77;;;5.20;;
76765;SDS011;65707;52.362;6.588;2022-12-18T09:59:09;15.35;;;6.38;;
76765;SDS011;65707;52.362;6.588;2022-12-18T10:04:19;24.23;;;8.50;;
76765;SDS011;65707;52.362;6.588;2022-12-18T10:06:46;12.82;;;4.88;;
76765;SDS011;65707;52.362;6.588;2022-12-18T10:09:27;14.00;;;5.68;;
76765;SDS011;65707;52.362;6.588;2022-12-18T10:12:02;13.57;;;6.00;;
76765;SDS011;65707;52.362;6.588;2022-12-18T10:14:42;15.43;;;6.97;;
76765;SDS011;65707;52.362;6.588;2022-12-18T10:17:19;13.57;;;6.13;;
76765;SDS011;65707;52.362;6.588;2022-12-18T10:19:57;13.35;;;6.07;;
76765;SDS011;65707;52.362;6.588;2022-12-18T10:22:35;15.63;;;5.55;;
76765;SDS011;65707;52.362;6.588;2022-12-18T10:25:19;12.48;;;5.70;;
76765;SDS011;65707;52.362;6.588;2022-12-18T10:27:52;14.23;;;4.78;;
76765;SDS011;65707;52.362;6.588;2022-12-18T10:30:24;13.85;;;5.78;;
76765;SDS011;65707;52.362;6.588;2022-12-18T10:32:52;13.30;;;4.82;;
76765;SDS011;65707;52.362;6.588;2022-12-18T10:35:21;14.70;;;5.50;;
76765;SDS011;65707;52.362;6.588;2022-12-18T10:38:02;16.88;;;6.00;;
76765;SDS011;65707;52.362;6.588;2022-12-18T10:40:51;14.80;;;6.10;;
76765;SDS011;65707;52.362;6.588;2022-12-18T10:43:22;13.88;;;4.78;;
76765;SDS011;65707;52.362;6.588;2022-12-18T10:45:59;11.73;;;4.80;;
76765;SDS011;65707;52.362;6.588;2022-12-18T10:48:40;13.55;;;6.25;;
76765;SDS011;65707;52.362;6.588;2022-12-18T10:51:22;14.80;;;5.65;;
76765;SDS011;65707;52.362;6.588;2022-12-18T10:53:54;13.55;;;4.97;;
76765;SDS011;65707;52.362;6.588;2022-12-18T10:56:27;12.52;;;4.90;;
76765;SDS011;65707;52.362;6.588;2022-12-18T10:58:58;14.50;;;5.25;;
76765;SDS011;65707;52.362;6.588;2022-12-18T11:01:27;13.15;;;5.20;;
76765;SDS011;65707;52.362;6.588;2022-12-18T11:04:13;11.93;;;5.10;;
76765;SDS011;65707;52.362;6.588;2022-12-18T11:06:52;13.75;;;6.32;;
76765;SDS011;65707;52.362;6.588;2022-12-18T11:09:26;13.60;;;5.57;;
76765;SDS011;65707;52.362;6.588;2022-12-18T11:14:26;16.77;;;6.40;;
76765;SDS011;65707;52.362;6.588;2022-12-18T11:16:57;13.13;;;6.15;;
76765;SDS011;65707;52.362;6.588;2022-12-18T11:19:29;14.63;;;5.72;;
76765;SDS011;65707;52.362;6.588;2022-12-18T11:22:02;14.20;;;6.00;;
76765;SDS011;65707;52.362;6.588;2022-12-18T11:24:51;12.73;;;5.60;;
76765;SDS011;65707;52.362;6.588;2022-12-18T11:27:22;12.98;;;5.63;;
76765;SDS011;65707;52.362;6.588;2022-12-18T11:29:50;49.50;;;25.40;;
76765;SDS011;65707;52.362;6.588;2022-12-18T11:32:22;11.25;;;5.13;;
76765;SDS011;65707;52.362;6.588;2022-12-18T11:34:59;12.68;;;5.32;;
76765;SDS011;65707;52.362;6.588;2022-12-18T11:37:36;12.68;;;5.13;;
76765;SDS011;65707;52.362;6.588;2022-12-18T11:40:10;15.93;;;6.43;;
76765;SDS011;65707;52.362;6.588;2022-12-18T11:42:46;12.38;;;5.90;;
76765;SDS011;65707;52.362;6.588;2022-12-18T11:45:25;10.82;;;4.80;;
76765;SDS011;65707;52.362;6.588;2022-12-18T11:47:57;13.25;;;4.78;;
76765;SDS011;65707;52.362;6.588;2022-12-18T11:50:31;10.27;;;4.45;;
76765;SDS011;65707;52.362;6.588;2022-12-18T11:53:15;14.25;;;5.50;;
76765;SDS011;65707;52.362;6.588;2022-12-18T11:55:47;14.02;;;5.40;;
76765;SDS011;65707;52.362;6.588;2022-12-18T11:58:32;15.15;;;5.93;;
76765;SDS011;65707;52.362;6.588;2022-12-18T12:01:17;12.43;;;4.90;;
76765;SDS011;65707;52.362;6.588;2022-12-18T12:07:18;10.93;;;5.03;;
76765;SDS011;65707;52.362;6.588;2022-12-18T12:10:08;12.32;;;5.00;;
76765;SDS011;65707;52.362;6.588;2022-12-18T12:12:56;12.75;;;5.15;;
76765;SDS011;65707;52.362;6.588;2022-12-18T12:15:46;12.82;;;5.03;;
76765;SDS011;65707;52.362;6.588;2022-12-18T12:18:29;14.55;;;5.53;;
76765;SDS011;65707;52.362;6.588;2022-12-18T12:21:16;14.48;;;5.40;;
76765;SDS011;65707;52.362;6.588;2022-12-18T12:23:56;14.65;;;7.18;;
76765;SDS011;65707;52.362;6.588;2022-12-18T12:26:36;12.25;;;5.85;;
76765;SDS011;65707;52.362;6.588;2022-12-18T12:29:18;11.40;;;4.72;;
76765;SDS011;65707;52.362;6.588;2022-12-18T12:32:10;11.05;;;4.45;;
76765;SDS011;65707;52.362;6.588;2022-12-18T12:34:56;11.30;;;4.50;;
76765;SDS011;65707;52.362;6.588;2022-12-18T12:37:43;10.40;;;4.85;;
76765;SDS011;65707;52.362;6.588;2022-12-18T12:40:27;10.98;;;5.05;;
76765;SDS011;65707;52.362;6.588;2022-12-18T12:42:58;10.20;;;3.53;;
76765;SDS011;65707;52.362;6.588;2022-12-18T12:45:40;11.93;;;4.30;;
76765;SDS011;65707;52.362;6.588;2022-12-18T12:48:17;10.82;;;5.43;;
76765;SDS011;65707;52.362;6.588;2022-12-18T12:50:58;10.73;;;4.88;;
76765;SDS011;65707;52.362;6.588;2022-12-18T12:53:30;12.35;;;5.25;;
76765;SDS011;65707;52.362;6.588;2022-12-18T12:56:02;10.23;;;4.72;;
76765;SDS011;65707;52.362;6.588;2022-12-18T12:58:33;10.07;;;4.18;;
76765;SDS011;65707;52.362;6.588;2022-12-18T13:01:13;12.15;;;5.40;;
76765;SDS011;65707;52.362;6.588;2022-12-18T13:03:55;12.27;;;5.20;;
76765;SDS011;65707;52.362;6.588;2022-12-18T13:06:40;9.55;;;4.30;;
76765;SDS011;65707;52.362;6.588;2022-12-18T13:09:16;11.73;;;4.97;;
76765;SDS011;65707;52.362;6.588;2022-12-18T13:11:43;10.13;;;4.57;;
76765;SDS011;65707;52.362;6.588;2022-12-18T13:14:30;20.05;;;6.25;;
76765;SDS011;65707;52.362;6.588;2022-12-18T13:17:16;13.80;;;6.05;;
76765;SDS011;65707;52.362;6.588;2022-12-18T13:22:45;12.68;;;5.15;;
76765;SDS011;65707;52.362;6.588;2022-12-18T13:25:32;12.23;;;5.15;;
76765;SDS011;65707;52.362;6.588;2022-12-18T13:28:12;12.32;;;4.95;;
76765;SDS011;65707;52.362;6.588;2022-12-18T13:30:44;9.60;;;4.22;;
76765;SDS011;65707;52.362;6.588;2022-12-18T13:36:27;10.85;;;4.40;;
76765;SDS011;65707;52.362;6.588;2022-12-18T13:41:50;11.57;;;4.68;;
76765;SDS011;65707;52.362;6.588;2022-12-18T13:44:31;9.82;;;4.75;;
76765;SDS011;65707;52.362;6.588;2022-12-18T13:47:00;14.57;;;5.53;;
76765;SDS011;65707;52.362;6.588;2022-12-18T13:49:31;11.55;;;4.63;;
76765;SDS011;65707;52.362;6.588;2022-12-18T13:52:15;11.93;;;5.05;;
76765;SDS011;65707;52.362;6.588;2022-12-18T13:54:47;11.60;;;5.40;;
76765;SDS011;65707;52.362;6.588;2022-12-18T13:57:26;11.57;;;5.00;;
76765;SDS011;65707;52.362;6.588;2022-12-18T13:59:58;11.88;;;4.55;;
76765;SDS011;65707;52.362;6.588;2022-12-18T14:02:49;12.98;;;5.28;;
76765;SDS011;65707;52.362;6.588;2022-12-18T14:05:21;12.98;;;4.60;;
76765;SDS011;65707;52.362;6.588;2022-12-18T14:07:50;11.75;;;4.90;;
76765;SDS011;65707;52.362;6.588;2022-12-18T14:10:18;12.15;;;4.88;;
76765;SDS011;65707;52.362;6.588;2022-12-18T14:12:47;12.27;;;4.75;;
76765;SDS011;65707;52.362;6.588;2022-12-18T14:15:23;12.25;;;5.22;;
76765;SDS011;65707;52.362;6.588;2022-12-18T14:17:58;8.88;;;3.75;;
76765;SDS011;65707;52.362;6.588;2022-12-18T14:20:29;14.77;;;6.20;;
76765;SDS011;65707;52.362;6.588;2022-12-18T14:23:00;11.90;;;4.80;;
76765;SDS011;65707;52.362;6.588;2022-12-18T14:25:27;12.00;;;5.20;;
76765;SDS011;65707;52.362;6.588;2022-12-18T14:28:02;16.90;;;7.57;;
76765;SDS011;65707;52.362;6.588;2022-12-18T14:30:40;12.25;;;5.00;;
76765;SDS011;65707;52.362;6.588;2022-12-18T14:33:12;11.48;;;4.43;;
76765;SDS011;65707;52.362;6.588;2022-12-18T14:35:41;12.10;;;5.45;;
76765;SDS011;65707;52.362;6.588;2022-12-18T14:38:24;13.55;;;4.85;;
76765;SDS011;65707;52.362;6.588;2022-12-18T14:41:00;13.18;;;5.75;;
76765;SDS011;65707;52.362;6.588;2022-12-18T14:43:31;13.63;;;5.80;;
76765;SDS011;65707;52.362;6.588;2022-12-18T14:46:00;15.18;;;5.50;;
76765;SDS011;65707;52.362;6.588;2022-12-18T14:48:36;17.55;;;5.95;;
76765;SDS011;65707;52.362;6.588;2022-12-18T14:51:06;14.27;;;5.22;;
76765;SDS011;65707;52.362;6.588;2022-12-18T14:53:44;14.18;;;5.57;;
76765;SDS011;65707;52.362;6.588;2022-12-18T14:56:14;11.32;;;4.57;;
76765;SDS011;65707;52.362;6.588;2022-12-18T14:58:47;10.73;;;5.40;;
76765;SDS011;65707;52.362;6.588;2022-12-18T15:01:18;12.50;;;5.32;;
76765;SDS011;65707;52.362;6.588;2022-12-18T15:03:49;13.00;;;5.07;;
76765;SDS011;65707;52.362;6.588;2022-12-18T15:06:21;14.20;;;5.43;;
76765;SDS011;65707;52.362;6.588;2022-12-18T15:08:56;11.48;;;4.53;;
76765;SDS011;65707;52.362;6.588;2022-12-18T15:11:28;12.23;;;5.55;;
76765;SDS011;65707;52.362;6.588;2022-12-18T15:16:57;17.00;;;7.47;;